Time;durP1;ratioP1;P1;durP2;ratioP2;P2;SDS_P1;SDS_P2;PMS_P1;PMS_P2;Temp;Humidity;BMP_temperature;BMP_pressure;BME280_temperature;BME280_humidity;BME280_pressure;Samples;Min_cycle;Max_cycle;Signal;HPM_P1;HPM_P2
2023/07/14 00:00:59;;;;;;;2.55;0.80;;;;;;;19.27;54.35;100226.13;10546911;28;20114;-73
2023/07/14 00:06:01;;;;;;;3.28;0.90;;;;;;;18.89;55.65;100230.25;10545466;28;20119;-73
2023/07/14 00:11:10;;;;;;;3.15;1.10;;;;;;;18.55;57.74;100225.28;10546784;28;20507;-73
2023/07/14 00:16:15;;;;;;;2.80;1.00;;;;;;;18.45;57.74;100227.66;10546040;28;20046;-73
2023/07/14 00:21:21;;;;;;;1.55;0.90;;;;;;;18.68;57.36;100231.56;10544635;28;20052;-72
2023/07/14 00:26:23;;;;;;;4.72;1.40;;;;;;;18.49;58.40;100228.34;10546675;28;20123;-73
2023/07/14 00:31:25;;;;;;;2.10;1.05;;;;;;;18.46;58.44;100233.84;10570176;28;20092;-73
2023/07/14 00:36:27;;;;;;;2.50;0.93;;;;;;;18.26;60.13;100243.06;10588347;28;20046;-73
2023/07/14 00:41:28;;;;;;;2.03;1.10;;;;;;;18.07;60.62;100244.16;10569746;28;20058;-73
2023/07/14 00:46:32;;;;;;;1.65;0.90;;;;;;;18.32;59.35;100248.84;10588631;28;20046;-72
2023/07/14 00:51:36;;;;;;;2.10;0.88;;;;;;;18.33;59.43;100252.38;10553230;28;20104;-72
2023/07/14 00:56:47;;;;;;;2.13;1.08;;;;;;;18.27;59.74;100239.44;10568654;28;20047;-73
2023/07/14 01:02:10;;;;;;;3.13;0.95;;;;;;;18.12;61.33;100242.06;10568139;28;20051;-74
2023/07/14 01:07:15;;;;;;;2.35;1.15;;;;;;;18.07;61.15;100237.97;10587601;28;20036;-74
2023/07/14 01:12:22;;;;;;;3.25;1.13;;;;;;;17.92;61.54;100228.22;10569173;28;20066;-74
2023/07/14 01:17:24;;;;;;;2.90;0.90;;;;;;;17.86;61.73;100222.34;10586611;28;20043;-74
2023/07/14 01:22:47;;;;;;;1.80;1.17;;;;;;;18.07;61.24;100222.03;10586159;28;20085;-74
2023/07/14 01:27:49;;;;;;;5.07;1.30;;;;;;;17.93;61.73;100227.28;10566901;28;20046;-74
2023/07/14 01:32:52;;;;;;;1.35;1.00;;;;;;;17.83;62.74;100221.66;10567700;28;20346;-74
2023/07/14 01:37:55;;;;;;;3.42;1.30;;;;;;;17.89;62.22;100229.28;10584886;28;20050;-72
2023/07/14 01:43:00;;;;;;;1.63;1.00;;;;;;;17.94;62.42;100224.56;10566489;28;20051;-74
2023/07/14 01:48:04;;;;;;;3.50;1.40;;;;;;;17.91;61.76;100227.38;10586701;28;20039;-74
2023/07/14 01:53:31;;;;;;;1.75;1.15;;;;;;;17.88;61.68;100222.22;10566623;28;20094;-74
2023/07/14 01:58:49;;;;;;;3.08;1.20;;;;;;;18.04;61.60;100232.84;10566006;28;20043;-74
2023/07/14 02:03:53;;;;;;;1.20;0.95;;;;;;;17.86;62.56;100227.66;10566100;28;20150;-74
2023/07/14 02:08:56;;;;;;;2.60;1.30;;;;;;;18.00;61.83;100233.97;10583782;28;20126;-74
2023/07/14 02:13:57;;;;;;;1.92;1.10;;;;;;;17.89;62.23;100231.94;10565908;28;20407;-74
2023/07/14 02:19:00;;;;;;;1.45;1.00;;;;;;;17.78;62.82;100237.88;10583340;28;20092;-74
2023/07/14 02:24:04;;;;;;;2.20;1.00;;;;;;;17.42;65.39;100245.28;10565511;28;20051;-72
2023/07/14 02:29:10;;;;;;;1.60;1.00;;;;;;;17.25;66.38;100248.88;10583103;28;20453;-72
2023/07/14 02:34:15;;;;;;;2.17;1.20;;;;;;;17.10;66.66;100242.63;10583727;28;20393;-72
2023/07/14 02:39:17;;;;;;;2.72;1.10;;;;;;;17.26;66.45;100247.94;10564323;28;20042;-72
2023/07/14 02:44:19;;;;;;;2.72;1.45;;;;;;;17.47;66.45;100252.03;10583738;28;20043;-72
2023/07/14 02:49:21;;;;;;;1.77;1.27;;;;;;;17.39;65.43;100251.63;10564306;28;20043;-72
2023/07/14 02:54:25;;;;;;;2.13;1.00;;;;;;;17.67;64.18;100253.56;10582552;28;20035;-72
2023/07/14 02:59:27;;;;;;;2.90;1.10;;;;;;;17.48;64.64;100248.44;10582972;28;20561;-72
2023/07/14 03:04:29;;;;;;;2.42;1.20;;;;;;;17.32;65.67;100243.16;10563886;28;20519;-72
2023/07/14 03:09:30;;;;;;;2.40;1.70;;;;;;;17.15;67.50;100243.25;10563734;28;20101;-72
2023/07/14 03:14:32;;;;;;;1.98;1.30;;;;;;;16.91;69.21;100242.81;10581847;28;20039;-72
2023/07/14 03:19:34;;;;;;;2.28;1.30;;;;;;;16.87;69.51;100241.25;10564139;28;20059;-72
2023/07/14 03:24:36;;;;;;;2.95;1.55;;;;;;;16.90;68.90;100244.56;10582991;28;20051;-72
2023/07/14 03:29:38;;;;;;;3.05;1.13;;;;;;;17.02;68.58;100239.53;10582265;28;20036;-72
2023/07/14 03:34:40;;;;;;;2.28;1.20;;;;;;;17.33;66.64;100239.53;10582771;28;20040;-72
2023/07/14 03:39:42;;;;;;;1.63;1.08;;;;;;;17.70;64.84;100250.72;10564131;28;20105;-72
2023/07/14 03:44:44;;;;;;;3.10;1.20;;;;;;;17.58;65.65;100259.44;10563404;28;20052;-71
2023/07/14 03:49:46;;;;;;;2.72;1.30;;;;;;;17.59;65.15;100246.03;10581480;28;20047;-72
2023/07/14 03:54:47;;;;;;;1.55;1.33;;;;;;;17.40;66.90;100242.72;10587715;28;20074;-71
2023/07/14 03:59:49;;;;;;;4.38;1.83;;;;;;;17.60;64.94;100247.75;10570955;28;20063;-72
2023/07/14 04:04:51;;;;;;;2.47;1.30;;;;;;;17.69;64.55;100242.84;10571090;28;20044;-72
2023/07/14 04:09:53;;;;;;;3.83;1.67;;;;;;;17.56;66.54;100248.88;10587978;28;20093;-72
2023/07/14 04:14:54;;;;;;;2.00;1.50;;;;;;;17.45;66.21;100242.47;10588699;28;20089;-72
2023/07/14 04:19:56;;;;;;;3.75;1.50;;;;;;;17.32;67.08;100240.50;10570043;28;20075;-72
2023/07/14 04:24:58;;;;;;;2.97;1.42;;;;;;;17.42;67.36;100253.25;10588354;28;20043;-72
2023/07/14 04:30:00;;;;;;;2.40;1.40;;;;;;;17.50;66.89;100254.53;10587650;28;20118;-72
2023/07/14 04:35:04;;;;;;;1.75;1.55;;;;;;;17.46;66.75;100253.00;10587853;28;20036;-72
2023/07/14 04:40:06;;;;;;;3.55;1.60;;;;;;;17.84;64.73;100258.81;10568953;28;20077;-72
2023/07/14 04:45:20;;;;;;;2.08;1.20;;;;;;;17.92;65.02;100260.16;10569116;28;20097;-77
2023/07/14 04:50:22;;;;;;;3.47;1.33;;;;;;;18.11;65.01;100258.13;10569577;28;20047;-74
2023/07/14 04:55:28;;;;;;;3.55;1.23;;;;;;;17.86;65.01;100256.91;10586736;28;20042;-73
2023/07/14 05:00:31;;;;;;;2.10;1.23;;;;;;;18.23;62.75;100251.22;10586950;28;20118;-73
2023/07/14 05:05:33;;;;;;;1.42;1.10;;;;;;;18.01;65.83;100256.94;10585536;28;20035;-73
2023/07/14 05:10:37;;;;;;;2.25;1.20;;;;;;;18.05;64.01;100253.16;10568739;28;20092;-74
2023/07/14 05:15:45;;;;;;;2.35;1.13;;;;;;;18.32;61.90;100255.97;10586507;28;20043;-74
2023/07/14 05:20:50;;;;;;;1.83;1.30;;;;;;;18.50;61.50;100262.84;10588045;28;20155;-77
2023/07/14 05:25:52;;;;;;;3.78;1.60;;;;;;;18.58;61.25;100257.91;10568730;28;20094;-76
2023/07/14 05:30:54;;;;;;;3.58;1.52;;;;;;;18.70;61.92;100263.47;10586750;28;20051;-77
2023/07/14 05:35:56;;;;;;;3.10;1.45;;;;;;;18.89;61.00;100258.69;10585713;28;20072;-76
2023/07/14 05:40:58;;;;;;;1.77;1.50;;;;;;;19.36;58.86;100262.84;10585250;28;20530;-76
2023/07/14 05:46:00;;;;;;;2.45;1.80;;;;;;;19.85;57.10;100275.66;10585323;28;20450;-75
2023/07/14 05:51:02;;;;;;;2.05;1.48;;;;;;;19.90;57.01;100266.38;10587522;28;20046;-76
2023/07/14 05:56:04;;;;;;;4.72;1.52;;;;;;;20.17;56.55;100269.00;10568074;28;20039;-77
2023/07/14 06:01:07;;;;;;;1.83;1.38;;;;;;;20.24;55.26;100264.09;10586436;28;20047;-77
2023/07/14 06:06:09;;;;;;;1.88;1.20;;;;;;;21.56;51.48;100269.03;10591180;28;20044;-77
2023/07/14 06:11:11;;;;;;;2.05;1.48;;;;;;;21.65;49.95;100278.19;10593531;28;20044;-78
2023/07/14 06:16:13;;;;;;;2.58;1.38;;;;;;;21.36;52.07;100262.44;10599600;28;20035;-77
2023/07/14 06:21:15;;;;;;;2.42;1.40;;;;;;;21.47;51.79;100259.00;10603090;28;20065;-77
2023/07/14 06:26:17;;;;;;;2.63;1.65;;;;;;;21.65;51.25;100264.81;10581736;28;20101;-77
2023/07/14 06:31:19;;;;;;;2.00;1.50;;;;;;;22.19;50.22;100245.59;10570066;28;20488;-76
2023/07/14 06:36:21;;;;;;;3.53;1.60;;;;;;;22.65;49.89;100237.50;10586610;28;20043;-76
2023/07/14 06:41:23;;;;;;;4.97;1.55;;;;;;;22.56;49.26;100238.22;10586336;28;20035;-77
2023/07/14 06:46:25;;;;;;;2.00;1.75;;;;;;;23.44;47.52;100234.75;10589342;28;20036;-77
2023/07/14 06:51:27;;;;;;;3.72;1.27;;;;;;;24.02;44.80;100240.66;10576296;28;20142;-77
2023/07/14 06:56:29;;;;;;;2.33;1.30;;;;;;;23.57;44.92;100243.50;10572323;28;20066;-78
2023/07/14 07:01:30;;;;;;;3.42;1.40;;;;;;;23.65;45.64;100237.53;10596139;28;20063;-76
2023/07/14 07:06:32;;;;;;;3.75;2.10;;;;;;;24.05;43.97;100229.66;10585324;28;20062;-77
2023/07/14 07:11:34;;;;;;;6.60;1.70;;;;;;;24.34;44.36;100229.00;10583987;28;20039;-76
2023/07/14 07:16:36;;;;;;;1.95;1.25;;;;;;;24.66;43.46;100227.09;10584754;28;20046;-76
2023/07/14 07:21:39;;;;;;;4.78;1.45;;;;;;;25.02;41.64;100218.59;10566718;28;20058;-74
2023/07/14 07:26:41;;;;;;;3.70;1.13;;;;;;;25.35;40.96;100217.44;10584129;28;20044;-73
2023/07/14 07:31:43;;;;;;;2.60;1.40;;;;;;;25.61;39.95;100205.13;10591196;28;20049;-73
2023/07/14 07:36:45;;;;;;;1.83;1.30;;;;;;;24.79;42.34;100207.19;10572181;28;20036;-73
2023/07/14 07:41:47;;;;;;;1.90;1.20;;;;;;;24.73;41.19;100207.75;10573626;28;20130;-73
2023/07/14 07:46:48;;;;;;;4.43;1.10;;;;;;;24.79;41.12;100209.88;10591095;28;20035;-73
2023/07/14 07:51:51;;;;;;;1.88;1.15;;;;;;;25.30;39.34;100212.47;10593516;28;20039;-73
2023/07/14 07:56:52;;;;;;;1.83;1.10;;;;;;;25.11;39.70;100207.06;10589734;28;20039;-73
2023/07/14 08:01:54;;;;;;;1.83;0.85;;;;;;;25.61;39.58;100202.44;10574130;28;20408;-78
2023/07/14 08:06:56;;;;;;;2.45;1.05;;;;;;;25.35;39.48;100212.91;10568184;28;20443;-75
2023/07/14 08:11:58;;;;;;;2.95;0.98;;;;;;;25.67;38.72;100203.72;10589507;28;20048;-75
2023/07/14 08:17:00;;;;;;;4.95;1.20;;;;;;;25.69;37.86;100195.50;10589209;28;20055;-74
2023/07/14 08:22:02;;;;;;;2.45;1.20;;;;;;;25.42;38.41;100189.81;10570841;28;20043;-74
2023/07/14 08:27:04;;;;;;;1.92;1.10;;;;;;;25.77;38.47;100183.06;10588521;28;20477;-75
2023/07/14 08:32:06;;;;;;;2.83;1.30;;;;;;;25.46;39.13;100173.41;10588775;28;20485;-74
2023/07/14 08:37:08;;;;;;;3.08;1.33;;;;;;;25.66;38.23;100170.56;10588194;28;20408;-74
2023/07/14 08:42:39;;;;;;;1.77;0.90;;;;;;;25.92;39.57;100176.25;10569896;28;20050;-75
2023/07/14 08:48:10;;;;;;;1.00;0.80;;;;;;;26.40;37.41;100177.13;10584765;28;20044;-74
2023/07/14 08:53:19;;;;;;;1.77;1.20;;;;;;;26.55;37.27;100182.91;10587286;28;20047;-74
2023/07/14 08:58:24;;;;;;;1.50;0.90;;;;;;;26.87;37.80;100177.97;10587318;28;20390;-73
2023/07/14 09:03:48;;;;;;;1.98;1.00;;;;;;;26.80;35.45;100179.53;10609064;27;20519;-74
2023/07/14 09:08:53;;;;;;;3.63;1.50;;;;;;;27.02;35.83;100174.75;10600994;27;20080;-74
2023/07/14 09:14:09;;;;;;;2.50;1.00;;;;;;;26.89;35.81;100161.63;10617646;27;20047;-74
2023/07/14 09:19:36;;;;;;;2.58;0.90;;;;;;;27.45;36.44;100165.09;10614750;27;20039;-74
2023/07/14 09:25:03;;;;;;;1.83;0.90;;;;;;;27.79;35.56;100160.69;10594670;27;20084;-75
2023/07/14 09:30:18;;;;;;;2.58;0.93;;;;;;;28.08;35.24;100155.03;10628657;27;20066;-75
2023/07/14 09:35:24;;;;;;;2.92;1.10;;;;;;;28.34;33.69;100146.91;10590137;27;20047;-76
2023/07/14 09:40:31;;;;;;;2.17;1.30;;;;;;;28.21;34.13;100151.91;10586991;28;20473;-76
2023/07/14 09:45:36;;;;;;;2.40;1.02;;;;;;;28.08;34.55;100137.97;10586136;28;20039;-75
2023/07/14 09:50:49;;;;;;;2.10;1.10;;;;;;;28.58;33.25;100138.09;10586039;28;20417;-76
2023/07/14 09:55:55;;;;;;;2.00;0.82;;;;;;;29.64;32.58;100124.00;10585327;28;20063;-76
2023/07/14 10:01:09;;;;;;;2.63;1.00;;;;;;;27.80;35.17;100124.59;10585112;28;20465;-76
2023/07/14 10:06:26;;;;;;;1.58;0.98;;;;;;;27.87;32.81;100122.94;10565855;28;20515;-74
2023/07/14 10:11:43;;;;;;;1.33;0.93;;;;;;;27.12;35.36;100111.66;10603317;27;20496;-74
2023/07/14 10:16:49;;;;;;;3.33;1.20;;;;;;;26.74;38.34;100104.66;10626760;27;20108;-74
2023/07/14 10:21:54;;;;;;;1.80;1.10;;;;;;;26.73;37.07;100099.38;10608823;27;20051;-74
2023/07/14 10:27:05;;;;;;;2.53;1.10;;;;;;;27.79;34.69;100097.75;10626046;27;20042;-74
2023/07/14 10:32:30;;;;;;;1.77;1.08;;;;;;;29.29;32.25;100087.22;10627220;27;20053;-74
2023/07/14 10:37:39;;;;;;;1.63;0.88;;;;;;;29.26;33.62;100084.84;10604355;27;20040;-74
2023/07/14 10:43:06;;;;;;;2.70;1.20;;;;;;;29.90;30.60;100075.03;10583062;28;20135;-75
2023/07/14 10:48:20;;;;;;;1.80;0.88;;;;;;;30.45;31.36;100074.19;10536785;28;20073;-74
2023/07/14 10:53:28;;;;;;;2.97;1.08;;;;;;;30.33;29.71;100070.19;10582526;28;20114;-74
2023/07/14 10:58:49;;;;;;;2.00;1.00;;;;;;;29.59;31.99;100066.78;10566039;28;20185;-76
2023/07/14 11:04:03;;;;;;;3.47;1.08;;;;;;;29.67;34.57;100064.06;10592593;28;20057;-76
2023/07/14 11:09:11;;;;;;;1.67;0.80;;;;;;;29.64;32.16;100057.13;10593150;28;20036;-77
2023/07/14 11:14:41;;;;;;;2.33;0.90;;;;;;;30.37;32.51;100047.09;10592848;28;20040;-76
2023/07/14 11:20:12;;;;;;;1.15;1.00;;;;;;;30.31;29.78;100045.09;10591905;28;20110;-75
2023/07/14 11:25:21;;;;;;;2.17;0.90;;;;;;;30.69;31.10;100037.97;10591735;28;20054;-75
2023/07/14 11:30:39;;;;;;;2.35;0.90;;;;;;;31.19;30.08;100036.63;10592654;28;20082;-73
2023/07/14 11:36:08;;;;;;;1.30;0.80;;;;;;;31.04;31.52;100020.28;10574415;28;20056;-72
2023/07/14 11:41:11;;;;;;;1.67;1.02;;;;;;;30.57;29.74;100014.97;10583536;28;20059;-72
2023/07/14 11:46:20;;;;;;;1.60;0.95;;;;;;;30.85;29.14;100027.03;10572123;28;20109;-73
2023/07/14 11:51:47;;;;;;;1.45;1.00;;;;;;;31.22;27.63;100017.25;10592438;28;20065;-73
2023/07/14 11:57:03;;;;;;;1.63;0.98;;;;;;;30.40;26.83;100006.06;10564560;22;20532;-76
2023/07/14 12:02:29;;;;;;;1.05;0.73;;;;;;;30.23;27.61;99996.34;10588204;28;20078;-74
2023/07/14 12:07:34;;;;;;;2.08;0.95;;;;;;;30.94;27.71;99997.94;10569799;28;20040;-75
2023/07/14 12:12:39;;;;;;;1.42;0.75;;;;;;;30.60;27.48;100003.78;10587637;28;20403;-75
2023/07/14 12:17:46;;;;;;;1.70;1.00;;;;;;;29.96;31.53;99987.59;10568986;28;20097;-75
2023/07/14 12:23:11;;;;;;;1.45;1.00;;;;;;;30.06;28.26;99974.72;10588034;28;20115;-75
2023/07/14 12:28:36;;;;;;;1.35;0.80;;;;;;;30.46;28.50;99975.56;10586765;28;20044;-75
2023/07/14 12:33:39;;;;;;;3.13;1.20;;;;;;;30.84;29.00;99970.22;10586606;28;20054;-75
2023/07/14 12:38:45;;;;;;;2.17;0.95;;;;;;;31.22;27.82;99965.66;10586300;28;20036;-77
2023/07/14 12:43:55;;;;;;;1.27;1.05;;;;;;;30.19;27.11;99965.16;10568061;28;20035;-74
2023/07/14 12:49:03;;;;;;;4.00;1.20;;;;;;;30.59;28.17;99954.09;10589989;28;20036;-77
2023/07/14 12:54:14;;;;;;;1.40;0.98;;;;;;;30.84;28.52;99941.22;10567919;28;20057;-77
2023/07/14 12:59:17;;;;;;;1.95;0.95;;;;;;;30.64;27.89;99942.72;10585690;28;20131;-77
2023/07/14 13:04:21;;;;;;;1.70;1.07;;;;;;;29.82;28.96;99932.28;10570120;28;20044;-78
2023/07/14 13:09:26;;;;;;;2.65;1.35;;;;;;;29.56;29.96;99924.41;10588630;28;20044;-77
2023/07/14 13:14:35;;;;;;;1.95;1.02;;;;;;;29.83;29.93;99923.13;10586785;28;20131;-77
2023/07/14 13:19:42;;;;;;;1.67;1.10;;;;;;;30.56;28.28;99923.78;10586384;28;20085;-77
2023/07/14 13:25:15;;;;;;;1.45;1.10;;;;;;;30.39;28.01;99913.03;10584612;28;20051;-79
2023/07/14 13:30:29;;;;;;;1.77;1.02;;;;;;;29.76;28.85;99905.91;10569946;28;20485;-77
2023/07/14 13:35:31;;;;;;;2.03;1.20;;;;;;;28.94;30.08;99899.75;10585330;28;20442;-77
2023/07/14 13:40:38;;;;;;;;;;;;;;;29.22;30.29;99897.56;10585388;28;20446;-77
2023/07/14 13:45:44;;;;;;;1.10;1.00;;;;;;;28.91;30.36;99894.72;10585238;28;19923;-78
2023/07/14 13:50:46;;;;;;;2.17;1.17;;;;;;;29.10;29.54;99890.81;10584007;28;20044;-77
2023/07/14 13:55:48;;;;;;;2.08;0.98;;;;;;;28.72;30.36;99884.22;10583321;28;20093;-77
2023/07/14 14:00:49;;;;;;;1.30;1.10;;;;;;;28.26;30.37;99879.25;10583786;28;20043;-77
2023/07/14 14:05:51;;;;;;;1.45;1.20;;;;;;;28.42;31.66;99864.94;10565287;28;20081;-76
2023/07/14 14:10:53;;;;;;;8.73;1.55;;;;;;;28.55;30.83;99864.44;10565252;28;20393;-77
2023/07/14 14:15:55;;;;;;;1.50;1.40;;;;;;;28.82;29.98;99857.84;10565542;28;20040;-76
2023/07/14 14:20:59;;;;;;;2.22;1.30;;;;;;;28.84;30.18;99866.63;10584294;28;20043;-76
2023/07/14 14:26:01;;;;;;;1.27;1.10;;;;;;;28.54;29.74;99855.47;10582463;28;20047;-77
2023/07/14 14:31:05;;;;;;;3.25;1.30;;;;;;;28.91;33.39;99851.44;10582863;28;20042;-76
2023/07/14 14:36:09;;;;;;;1.20;1.10;;;;;;;29.13;29.60;99844.44;10586421;28;20073;-77
2023/07/14 14:41:29;;;;;;;1.50;1.13;;;;;;;29.50;29.34;99843.00;10583050;28;20040;-77
2023/07/14 14:46:31;;;;;;;1.67;1.15;;;;;;;29.45;28.53;99840.81;10582017;28;20039;-77
2023/07/14 14:51:33;;;;;;;2.50;1.40;;;;;;;29.37;29.81;99833.56;10581725;28;20101;-77
2023/07/14 14:56:40;;;;;;;1.27;1.00;;;;;;;29.27;28.94;99819.41;10582132;28;20152;-77
2023/07/14 15:01:46;;;;;;;1.35;1.25;;;;;;;28.94;29.24;99809.63;10583100;28;20122;-78
2023/07/14 15:06:49;;;;;;;2.38;1.27;;;;;;;28.83;30.85;99814.41;10585344;28;20044;-77
2023/07/14 15:11:54;;;;;;;2.50;1.23;;;;;;;29.08;29.51;99806.25;10567010;28;20135;-77
2023/07/14 15:17:00;;;;;;;1.92;1.77;;;;;;;28.46;30.83;99796.00;10567010;28;20123;-77
2023/07/14 15:22:17;;;;;;;1.85;1.30;;;;;;;28.46;30.07;99804.09;10584031;28;20046;-76
2023/07/14 15:27:30;;;;;;;1.30;1.10;;;;;;;28.80;28.97;99795.78;10584701;28;20044;-76
2023/07/14 15:32:32;;;;;;;1.42;1.17;;;;;;;28.80;30.68;99786.84;10565977;28;20044;-77
2023/07/14 15:37:35;;;;;;;1.98;1.30;;;;;;;29.29;28.83;99789.44;10585850;28;20035;-77
2023/07/14 15:42:38;;;;;;;3.92;1.40;;;;;;;29.25;28.45;99790.78;10569446;28;20397;-78
2023/07/14 15:47:40;;;;;;;1.52;1.40;;;;;;;29.19;30.01;99784.22;10585255;28;20130;-77
2023/07/14 15:52:45;;;;;;;3.28;1.35;;;;;;;28.78;30.18;99772.66;10578881;28;20048;-76
2023/07/14 15:57:47;;;;;;;2.55;1.60;;;;;;;28.50;30.35;99772.16;10592633;28;20438;-77
2023/07/14 16:02:50;;;;;;;2.65;1.52;;;;;;;28.54;29.48;99774.38;10581321;28;20044;-79
2023/07/14 16:07:55;;;;;;;1.73;1.48;;;;;;;28.19;31.48;99762.00;10584629;28;20050;-78
2023/07/14 16:12:58;;;;;;;1.60;1.50;;;;;;;28.14;30.43;99757.13;10599199;28;20046;-78
2023/07/14 16:18:00;;;;;;;1.85;1.70;;;;;;;28.12;30.32;99747.50;10574780;28;20048;-78
2023/07/14 16:23:02;;;;;;;1.77;1.48;;;;;;;28.11;30.72;99741.25;10599068;28;20040;-78
2023/07/14 16:28:05;;;;;;;7.47;1.67;;;;;;;28.38;30.89;99745.50;10597034;28;20405;-78
2023/07/14 16:33:07;;;;;;;4.32;2.17;;;;;;;28.53;29.64;99736.69;10591981;28;20492;-78
2023/07/14 16:38:22;;;;;;;1.75;1.52;;;;;;;28.90;28.77;99733.38;10589056;28;20115;-77
2023/07/14 16:43:24;;;;;;;6.03;1.65;;;;;;;29.34;28.59;99730.19;10590615;28;20477;-77
2023/07/14 16:48:26;;;;;;;2.40;1.70;;;;;;;29.08;29.11;99717.78;10591314;28;20538;-76
2023/07/14 16:53:29;;;;;;;7.93;1.67;;;;;;;28.62;29.67;99717.56;10572285;28;20078;-78
2023/07/14 16:58:31;;;;;;;1.98;1.63;;;;;;;28.51;30.36;99708.97;10573332;28;20046;-77
2023/07/14 17:03:33;;;;;;;1.67;1.50;;;;;;;28.38;30.03;99691.44;10587032;28;20047;-77
2023/07/14 17:08:35;;;;;;;2.50;1.60;;;;;;;28.05;30.35;99689.75;10567799;28;20054;-77
2023/07/14 17:13:39;;;;;;;3.38;2.00;;;;;;;27.99;31.01;99688.56;10591508;28;20043;-78
2023/07/14 17:18:41;;;;;;;1.70;1.60;;;;;;;27.72;31.20;99672.66;10571187;22;20153;-76
2023/07/14 17:23:47;;;;;;;2.75;1.92;;;;;;;27.53;31.09;99657.59;10547760;28;20040;-77
2023/07/14 17:28:49;;;;;;;2.83;1.90;;;;;;;27.56;31.04;99651.88;10549195;28;20094;-79
2023/07/14 17:33:51;;;;;;;2.05;1.80;;;;;;;27.30;31.36;99655.56;10550596;28;20079;-78
2023/07/14 17:38:53;;;;;;;1.95;1.83;;;;;;;27.30;31.31;99652.84;10537836;28;20067;-79
2023/07/14 17:43:58;;;;;;;2.50;2.20;;;;;;;26.90;32.61;99650.84;10557279;28;20063;-81
2023/07/14 17:49:00;;;;;;;4.18;2.15;;;;;;;26.65;31.94;99656.16;10539828;28;20044;-80
2023/07/14 17:54:41;;;;;;;2.10;1.90;;;;;;;26.56;32.74;99650.84;10552477;28;20405;-79
2023/07/14 17:59:43;;;;;;;2.33;1.70;;;;;;;26.45;32.26;99643.91;10419202;28;20053;-78
2023/07/14 18:04:45;;;;;;;3.70;2.35;;;;;;;26.77;31.20;99645.06;10417428;28;20045;-78
2023/07/14 18:09:46;;;;;;;2.10;1.88;;;;;;;26.61;32.05;99643.16;10414244;28;20076;-76
2023/07/14 18:14:48;;;;;;;2.85;2.10;;;;;;;26.42;32.40;99644.19;10415309;28;20061;-78
2023/07/14 18:19:51;;;;;;;3.15;2.08;;;;;;;26.33;32.01;99640.59;10414510;28;20108;-77
2023/07/14 18:24:54;;;;;;;2.15;1.85;;;;;;;26.27;32.11;99648.50;10414815;28;20479;-78
2023/07/14 18:29:56;;;;;;;4.72;2.20;;;;;;;26.02;32.98;99639.38;10396643;28;20149;-77
2023/07/14 18:34:58;;;;;;;2.63;1.83;;;;;;;26.03;32.97;99639.25;10485679;28;20051;-77
2023/07/14 18:40:03;;;;;;;2.97;1.95;;;;;;;26.09;32.24;99627.84;10523339;28;20051;-77
2023/07/14 18:45:15;;;;;;;2.07;1.87;;;;;;;25.99;32.51;99634.34;10543154;28;20033;-77
2023/07/14 18:50:18;;;;;;;3.13;2.50;;;;;;;25.73;33.52;99642.34;10541431;28;20331;-77
2023/07/14 18:55:21;;;;;;;2.17;1.70;;;;;;;25.39;35.12;99627.72;10542406;28;20052;-75
2023/07/14 19:00:22;;;;;;;3.05;2.05;;;;;;;25.52;34.07;99643.50;10539433;28;20444;-74
2023/07/14 19:05:24;;;;;;;3.00;2.20;;;;;;;25.31;36.04;99646.47;10539594;28;20405;-75
2023/07/14 19:10:26;;;;;;;2.55;1.92;;;;;;;24.96;36.03;99649.94;10539979;28;20068;-75
2023/07/14 19:15:27;;;;;;;2.65;2.45;;;;;;;24.81;39.63;99646.91;10546836;28;20043;-79
2023/07/14 19:20:29;;;;;;;2.60;2.10;;;;;;;24.62;38.19;99650.53;10586972;28;20164;-79
2023/07/14 19:25:31;;;;;;;3.00;2.20;;;;;;;24.50;39.11;99654.41;10594007;28;20040;-78
2023/07/14 19:30:34;;;;;;;2.90;2.10;;;;;;;23.98;40.41;99656.59;10579837;28;20082;-79
2023/07/14 19:35:37;;;;;;;5.07;2.67;;;;;;;24.02;40.96;99662.53;10604404;28;20035;-79
2023/07/14 19:40:39;;;;;;;3.90;2.70;;;;;;;23.97;40.96;99668.34;10599841;28;20043;-78
2023/07/14 19:45:41;;;;;;;2.90;2.50;;;;;;;23.77;39.37;99667.50;10594586;28;20043;-78
2023/07/14 19:50:45;;;;;;;2.78;2.45;;;;;;;23.69;41.83;99667.38;10596570;28;20131;-78
2023/07/14 19:55:47;;;;;;;2.85;2.60;;;;;;;23.24;43.40;99672.38;10598571;28;20043;-78
2023/07/14 20:00:50;;;;;;;3.47;3.17;;;;;;;23.47;41.62;99663.09;10595246;28;20453;-78
2023/07/14 20:05:55;;;;;;;3.97;3.63;;;;;;;23.08;43.17;99668.41;10598130;28;20501;-78
2023/07/14 20:11:00;;;;;;;4.70;4.07;;;;;;;22.81;43.53;99662.81;10578819;28;20123;-78
2023/07/14 20:16:04;;;;;;;4.25;3.85;;;;;;;22.77;43.15;99661.38;10595094;28;20067;-79
2023/07/14 20:21:15;;;;;;;4.75;4.00;;;;;;;22.56;44.00;99666.78;10597473;28;20407;-78
2023/07/14 20:26:17;;;;;;;4.47;3.13;;;;;;;22.47;44.16;99671.09;10598540;28;20031;-78
2023/07/14 20:31:21;;;;;;;3.25;2.92;;;;;;;22.17;44.78;99671.91;10596135;28;20481;-78
2023/07/14 20:36:25;;;;;;;4.95;4.38;;;;;;;22.12;45.92;99666.13;10588548;28;20051;-77
2023/07/14 20:41:30;;;;;;;5.43;4.93;;;;;;;21.74;47.27;99666.69;10568998;28;20040;-78
2023/07/14 20:46:37;;;;;;;4.20;3.80;;;;;;;21.57;47.91;99660.06;10576579;28;20047;-78
2023/07/14 20:51:41;;;;;;;4.55;4.15;;;;;;;21.28;49.77;99657.91;10591528;28;20050;-78
2023/07/14 20:56:43;;;;;;;3.30;3.00;;;;;;;21.14;50.73;99656.38;10594095;28;20115;-78
2023/07/14 21:01:46;;;;;;;3.92;3.33;;;;;;;21.14;50.92;99658.22;10590167;28;20072;-78
2023/07/14 21:06:48;;;;;;;4.72;3.10;;;;;;;21.01;51.66;99660.19;10588676;28;20049;-79
2023/07/14 21:11:50;;;;;;;4.25;3.88;;;;;;;21.13;50.99;99657.38;10588379;28;20180;-79
2023/07/14 21:16:54;;;;;;;4.50;4.03;;;;;;;20.94;51.63;99670.53;10592604;28;20130;-79
2023/07/14 21:21:56;;;;;;;3.80;3.50;;;;;;;20.81;51.40;99664.47;10594027;28;20044;-77
2023/07/14 21:26:58;;;;;;;3.63;3.30;;;;;;;20.90;50.72;99672.59;10593660;28;20078;-77
2023/07/14 21:32:00;;;;;;;3.50;3.20;;;;;;;20.59;53.70;99660.00;10590439;28;20548;-78
2023/07/14 21:37:01;;;;;;;5.25;3.38;;;;;;;20.63;52.91;99651.63;10592059;28;20064;-78
2023/07/14 21:42:04;;;;;;;3.90;3.38;;;;;;;20.53;52.14;99650.63;10591146;28;20122;-78
2023/07/14 21:47:09;;;;;;;4.70;2.95;;;;;;;20.53;51.63;99655.97;10594333;28;20055;-78
2023/07/14 21:52:13;;;;;;;3.78;3.47;;;;;;;20.13;54.30;99648.38;10589993;28;20054;-77
2023/07/14 21:57:15;;;;;;;5.13;3.33;;;;;;;20.24;52.33;99652.03;10583442;28;20062;-78
2023/07/14 22:02:17;;;;;;;3.90;3.40;;;;;;;20.28;51.83;99649.03;10584921;28;20119;-79
2023/07/14 22:07:19;;;;;;;3.53;3.10;;;;;;;20.30;51.81;99651.56;10586829;28;20047;-78
2023/07/14 22:12:21;;;;;;;3.70;3.13;;;;;;;20.19;52.87;99651.53;10590060;28;20047;-78
2023/07/14 22:17:23;;;;;;;3.83;3.42;;;;;;;20.12;54.51;99657.34;10589695;28;20077;-78
2023/07/14 22:22:25;;;;;;;4.03;2.83;;;;;;;19.84;54.79;99649.78;10591372;28;20516;-78
2023/07/14 22:27:27;;;;;;;2.88;2.58;;;;;;;19.77;54.67;99653.88;10591039;28;20050;-78
2023/07/14 22:32:29;;;;;;;2.97;2.20;;;;;;;19.83;55.00;99648.06;10590871;28;20133;-77
2023/07/14 22:37:31;;;;;;;3.25;2.35;;;;;;;19.77;55.53;99645.88;10590280;28;20070;-78
2023/07/14 22:42:32;;;;;;;4.93;2.60;;;;;;;19.70;55.14;99650.84;10582935;28;20043;-77
2023/07/14 22:47:34;;;;;;;7.70;2.83;;;;;;;19.72;54.45;99642.72;10583726;28;20047;-79
2023/07/14 22:52:36;;;;;;;5.35;2.72;;;;;;;19.82;54.97;99647.22;10586037;28;20410;-78
2023/07/14 22:57:37;;;;;;;2.90;2.60;;;;;;;19.64;55.13;99643.28;10583318;28;20043;-77
2023/07/14 23:02:40;;;;;;;3.47;2.78;;;;;;;19.49;55.61;99634.59;10582284;28;20052;-79
2023/07/14 23:07:42;;;;;;;3.78;2.70;;;;;;;19.33;55.92;99634.03;10563558;28;20067;-78
2023/07/14 23:12:43;;;;;;;2.80;2.55;;;;;;;19.16;56.95;99628.13;10582342;28;20050;-78
2023/07/14 23:17:45;;;;;;;3.47;3.08;;;;;;;18.97;58.09;99624.28;10582891;28;20078;-77
2023/07/14 23:22:47;;;;;;;5.88;3.20;;;;;;;18.85;59.43;99621.53;10582684;28;20047;-77
2023/07/14 23:27:48;;;;;;;3.45;3.03;;;;;;;18.90;58.70;99615.88;10583047;28;20031;-77
2023/07/14 23:32:50;;;;;;;3.20;2.90;;;;;;;18.84;59.00;99613.66;10565528;28;20054;-77